Airfield :







YOU CAN JOIN US ON...

 
LOGIN :

Register | Disclaimer

   EN    FR    IT 

 









Legend :    VFR   Marginal VFR   IFR   Intensive IFR   Very Intensive IFR
Visi :
Ceiling :
>= 8 km
>= 3000ft
5 to 8 km
1000 to 3000 ft
1500m to 5 km
500 to 1000 ft
800 to 1500m
200 to 500 ft
< 800m
< 200 ft
Symbols :   Thunderstorms  Fog  Heavy snow  Heavy precipitations  Wind > 20 kt






- Airport Elevation : 1808 ft
- IATA code : YWK


CYWK - Wabush

CURRENT METAR :
  • 162100Z 31019G26KT 12SM -SHSN DRSN FEW024 M11/M16 A2993 RMK CU2 SLP183

EXPIRED METARs :
  • 162000Z 30017G28KT 12SM -SHSN DRSN FEW024 M10/M15 A2989 RMK CU2 SLP170
  • 161900Z 30025G30KT 12SM -SHSN DRSN SCT026 M10/M15 A2986 RMK CU3 SLP158

TAF TAF CYWK
Valid from the 16 at 20:00 until the 17 at 08:00 UTC


161938Z 1620/1708 30018G28KT P6SM SCT025
TEMPO 1620/1624 4SM -SN BKN020
FM170000 30015G25KT P6SM BKN015
BECMG 1705/1707 28010KT RMK NXT FCST BY 170200Z



MET'MAP, your aeronautical weather chart ! - Copyright ORBIFLY December 2007 - Disclaimer

ORBIFLY MET'MAP TEAM :

Programming & Development : Alexandra Zaïnal
Concept & Development : Baudouin d'Aumeries
Co-Development & Prog : Marc-Olivier Méhu
Technical & hardware support : Manuel Goepfert

Contact : metmap@orbifly.com




SOURCES & CREDITS :

   NOAA